createdAt,value
2022-08-26T00:02:06.437Z,4.47
2022-08-26T00:04:33.541Z,4.93
2022-08-26T00:07:00.452Z,4.25
2022-08-26T00:09:37.195Z,4.22
2022-08-26T00:12:08.988Z,4.30
2022-08-26T00:14:38.365Z,4.47
2022-08-26T00:17:05.483Z,4.50
2022-08-26T00:19:35.914Z,4.65
2022-08-26T00:22:02.990Z,4.32
2022-08-26T00:24:32.097Z,4.95
2022-08-26T00:26:58.847Z,4.10
2022-08-26T00:29:25.788Z,4.65
2022-08-26T00:31:56.561Z,4.70
2022-08-26T00:34:23.523Z,4.30
2022-08-26T00:36:52.720Z,4.55
2022-08-26T00:39:19.970Z,4.47
2022-08-26T00:41:47.832Z,4.57
2022-08-26T00:44:14.578Z,4.68
2022-08-26T00:46:46.928Z,4.35
2022-08-26T00:49:23.810Z,4.60
2022-08-26T00:51:53.377Z,4.68
2022-08-26T00:54:27.055Z,4.32
2022-08-26T00:57:16.082Z,4.00
2022-08-26T00:59:56.707Z,4.63
2022-08-26T01:02:26.464Z,4.25
2022-08-26T01:05:00.741Z,4.43
2022-08-26T01:07:31.353Z,4.55
2022-08-26T01:10:01.294Z,4.68
2022-08-26T01:12:37.991Z,4.57
2022-08-26T01:15:09.388Z,5.43
2022-08-26T01:17:38.251Z,4.90
2022-08-26T01:20:26.781Z,4.95
2022-08-26T01:23:06.126Z,5.10
2022-08-26T01:25:46.132Z,5.45
2022-08-26T01:28:23.279Z,5.32
2022-08-26T01:30:52.599Z,4.50
2022-08-26T01:33:27.788Z,5.22
2022-08-26T01:35:55.611Z,5.25
2022-08-26T01:38:23.802Z,5.05
2022-08-26T01:40:50.617Z,5.20
2022-08-26T01:43:22.251Z,4.93
2022-08-26T01:45:54.251Z,4.93
2022-08-26T01:48:28.091Z,5.03
2022-08-26T01:50:56.669Z,5.30
2022-08-26T01:53:26.690Z,4.90
2022-08-26T01:55:59.476Z,4.95
2022-08-26T01:58:33.585Z,4.75
2022-08-26T02:01:02.562Z,4.95
2022-08-26T02:03:30.122Z,5.13
2022-08-26T02:06:03.035Z,5.05
2022-08-26T02:08:43.987Z,5.63
2022-08-26T02:11:11.551Z,4.97
2022-08-26T02:13:46.615Z,5.63
2022-08-26T02:16:16.988Z,5.50
2022-08-26T02:18:46.928Z,5.18
2022-08-26T02:21:16.510Z,5.70
2022-08-26T02:23:47.963Z,5.30
2022-08-26T02:26:19.364Z,5.25
2022-08-26T02:28:56.731Z,5.10
2022-08-26T02:31:24.984Z,5.15
2022-08-26T02:33:52.237Z,5.53
2022-08-26T02:36:21.662Z,5.88
2022-08-26T02:38:52.108Z,5.38
2022-08-26T02:41:18.799Z,5.55
2022-08-26T02:43:45.490Z,5.80
2022-08-26T02:46:12.366Z,5.53
2022-08-26T02:48:50.353Z,5.40
2022-08-26T02:51:17.440Z,5.70
2022-08-26T02:53:44.484Z,5.15
2022-08-26T02:56:11.319Z,4.82
2022-08-26T02:58:38.010Z,5.47
2022-08-26T03:01:05.471Z,5.25
2022-08-26T03:03:33.322Z,5.78
2022-08-26T03:06:00.442Z,5.28
2022-08-26T03:08:27.341Z,5.45
2022-08-26T03:10:53.990Z,5.38
2022-08-26T03:13:20.646Z,5.10
2022-08-26T03:15:47.649Z,4.93
2022-08-26T03:18:16.686Z,5.35
2022-08-26T03:20:43.904Z,5.18
2022-08-26T03:23:14.057Z,5.28
2022-08-26T03:26:07.055Z,5.47
2022-08-26T03:29:00.858Z,5.68
2022-08-26T03:31:35.476Z,5.85
2022-08-26T03:34:04.620Z,5.15
2022-08-26T03:36:33.764Z,5.93
2022-08-26T03:39:02.348Z,5.45
2022-08-26T03:41:31.858Z,5.20
2022-08-26T03:44:01.522Z,5.20
2022-08-26T03:49:01.619Z,5.30
2022-08-26T03:51:28.900Z,4.90
2022-08-26T03:53:55.633Z,5.60
2022-08-26T03:56:24.006Z,5.55
2022-08-26T03:58:53.904Z,5.00
2022-08-26T04:01:20.829Z,5.10
2022-08-26T04:03:57.126Z,5.57
2022-08-26T04:06:33.604Z,6.00
2022-08-26T04:09:04.549Z,5.63
2022-08-26T04:11:34.785Z,5.20
2022-08-26T04:14:13.717Z,5.68
2022-08-26T04:16:44.088Z,5.60
2022-08-26T04:19:12.852Z,5.57
2022-08-26T04:21:40.675Z,6.47
2022-08-26T04:24:17.631Z,6.68
2022-08-26T04:26:44.625Z,5.63
2022-08-26T04:29:18.141Z,5.72
2022-08-26T04:31:47.249Z,6.07
2022-08-26T04:34:20.043Z,6.07
2022-08-26T04:36:47.064Z,5.75
2022-08-26T04:39:16.219Z,6.30
2022-08-26T04:41:47.670Z,5.97
2022-08-26T04:44:16.200Z,5.90
2022-08-26T04:46:44.504Z,6.00
2022-08-26T04:49:12.430Z,5.80
2022-08-26T04:51:45.457Z,5.82
2022-08-26T04:54:20.453Z,5.95
2022-08-26T04:56:48.836Z,6.05
2022-08-26T04:59:18.224Z,5.70
2022-08-26T05:01:48.368Z,6.55
2022-08-26T05:04:16.254Z,6.53
2022-08-26T05:06:46.848Z,6.40
2022-08-26T05:09:15.328Z,5.88
2022-08-26T05:11:42.314Z,6.55
2022-08-26T05:14:09.345Z,6.05
2022-08-26T05:16:43.672Z,6.28
2022-08-26T05:19:15.934Z,5.72
2022-08-26T05:21:50.561Z,6.05
2022-08-26T05:24:20.405Z,6.03
2022-08-26T05:26:48.148Z,5.90
2022-08-26T05:29:15.811Z,6.18
2022-08-26T05:31:46.182Z,6.15
2022-08-26T05:34:15.081Z,6.22
2022-08-26T05:36:42.046Z,6.28
2022-08-26T05:39:11.954Z,6.07
2022-08-26T05:41:42.126Z,6.32
2022-08-26T05:44:53.829Z,5.95
2022-08-26T05:47:20.236Z,6.30
2022-08-26T05:49:51.689Z,6.05
2022-08-26T05:52:19.022Z,5.80
2022-08-26T05:54:47.040Z,6.13
2022-08-26T05:57:14.834Z,5.90
2022-08-26T05:59:41.554Z,6.45
2022-08-26T06:02:08.937Z,6.43
2022-08-26T06:04:35.667Z,6.55
2022-08-26T06:07:07.624Z,6.40
2022-08-26T06:09:42.251Z,7.30
2022-08-26T06:12:10.451Z,6.40
2022-08-26T06:14:37.132Z,6.57
2022-08-26T06:17:09.616Z,6.25
2022-08-26T06:22:46.729Z,6.07
2022-08-26T06:25:31.989Z,6.38
2022-08-26T06:27:59.302Z,6.45
2022-08-26T06:30:30.378Z,6.93
2022-08-26T06:33:00.351Z,6.55
2022-08-26T06:41:37.315Z,6.70
2022-08-26T06:44:44.737Z,6.13
2022-08-26T06:47:12.113Z,6.07
2022-08-26T06:49:44.279Z,6.38
2022-08-26T06:52:42.944Z,5.97
2022-08-26T06:55:18.526Z,5.53
2022-08-26T06:57:46.070Z,5.35
2022-08-26T07:00:14.680Z,6.28
2022-08-26T07:02:46.188Z,5.60
2022-08-26T07:07:43.242Z,5.40
2022-08-26T07:10:12.744Z,5.78
2022-08-26T07:12:39.522Z,5.22
2022-08-26T07:15:11.555Z,5.47
2022-08-26T07:18:11.336Z,5.90
2022-08-26T07:20:42.250Z,5.32
2022-08-26T07:23:12.137Z,5.20
2022-08-26T07:25:50.569Z,5.53
2022-08-26T07:28:25.265Z,4.90
2022-08-26T07:30:53.595Z,5.63
2022-08-26T07:33:22.868Z,5.47
2022-08-26T07:35:49.790Z,5.25
2022-08-26T07:38:17.410Z,5.40
2022-08-26T07:41:12.491Z,5.05
2022-08-26T07:43:39.706Z,4.70
2022-08-26T07:46:07.955Z,4.80
2022-08-26T07:48:39.006Z,4.60
2022-08-26T07:51:10.529Z,4.90
2022-08-26T07:53:48.077Z,5.03
2022-08-26T07:56:22.494Z,4.68
2022-08-26T07:58:54.569Z,4.60
2022-08-26T08:01:23.690Z,4.63
2022-08-26T08:03:52.543Z,4.95
2022-08-26T08:06:27.212Z,5.15
2022-08-26T08:08:56.370Z,4.80
2022-08-26T08:11:23.631Z,4.82
2022-08-26T08:13:56.162Z,5.70
2022-08-26T08:16:28.463Z,4.68
2022-08-26T08:18:59.248Z,4.47
2022-08-26T08:21:28.963Z,5.05
2022-08-26T08:23:57.724Z,4.90
2022-08-26T08:26:25.523Z,5.40
2022-08-26T08:29:00.154Z,5.10
2022-08-26T08:34:21.538Z,5.10
2022-08-26T08:36:53.389Z,4.60
2022-08-26T08:39:22.012Z,4.85
2022-08-26T08:42:10.259Z,4.82
2022-08-26T08:44:52.001Z,5.30
2022-08-26T08:50:53.248Z,4.57
2022-08-26T08:53:33.453Z,5.03
2022-08-26T08:56:23.762Z,4.90
2022-08-26T08:59:16.112Z,4.80
2022-08-26T09:02:16.067Z,5.03
2022-08-26T09:05:39.304Z,5.03
2022-08-26T09:08:11.625Z,4.75
2022-08-26T09:10:50.049Z,5.32
2022-08-26T09:13:24.942Z,5.00
2022-08-26T09:19:32.796Z,5.22
2022-08-26T09:22:01.631Z,4.93
2022-08-26T09:24:38.417Z,5.07
2022-08-26T09:27:51.393Z,5.40
2022-08-26T09:30:32.242Z,5.00
2022-08-26T09:33:01.721Z,5.10
2022-08-26T09:35:46.488Z,5.15
2022-08-26T09:38:37.808Z,5.22
2022-08-26T09:41:20.267Z,4.90
2022-08-26T09:44:16.929Z,5.38
2022-08-26T09:55:22.369Z,5.15
2022-08-26T10:00:26.941Z,5.10
2022-08-26T10:03:33.734Z,5.18
2022-08-26T10:06:25.750Z,5.03
2022-08-26T10:09:03.602Z,4.65
2022-08-26T10:11:49.984Z,5.15
2022-08-26T10:21:18.009Z,4.68
2022-08-26T10:27:03.433Z,5.22
2022-08-26T10:29:43.381Z,5.40
2022-08-26T10:35:16.787Z,6.03
2022-08-26T10:40:49.147Z,6.28
2022-08-26T10:43:36.741Z,5.45
2022-08-26T10:49:14.780Z,4.97
2022-08-26T10:52:24.235Z,5.60
2022-08-26T10:55:15.031Z,5.10
2022-08-26T10:57:53.228Z,5.13
2022-08-26T11:00:56.837Z,5.38
2022-08-26T11:04:02.129Z,5.53
2022-08-26T11:06:30.639Z,5.25
2022-08-26T11:09:03.409Z,5.68
2022-08-26T11:11:50.897Z,6.03
2022-08-26T11:14:28.446Z,5.47
2022-08-26T11:16:58.086Z,5.10
2022-08-26T11:19:59.599Z,5.28
2022-08-26T11:22:34.848Z,5.22
2022-08-26T11:25:12.852Z,4.90
2022-08-26T11:27:40.841Z,4.78
2022-08-26T11:30:18.573Z,4.63
2022-08-26T11:32:56.560Z,4.50
2022-08-26T11:35:23.793Z,4.63
2022-08-26T11:37:57.488Z,4.60
2022-08-26T11:40:56.946Z,4.72
2022-08-26T11:43:37.212Z,4.82
2022-08-26T11:46:17.658Z,4.90
2022-08-26T11:48:45.513Z,4.45
2022-08-26T11:51:24.237Z,5.10
2022-08-26T11:54:18.083Z,4.60
2022-08-26T11:56:59.966Z,4.03
2022-08-26T11:59:40.240Z,4.13
2022-08-26T12:02:16.667Z,4.28
2022-08-26T12:04:48.834Z,4.35
2022-08-26T12:07:23.971Z,3.83
2022-08-26T12:10:00.443Z,4.15
2022-08-26T12:12:34.960Z,5.13
2022-08-26T12:15:22.229Z,4.07
2022-08-26T12:17:53.544Z,5.13
2022-08-26T12:21:00.697Z,4.63
2022-08-26T12:23:37.454Z,5.20
2022-08-26T12:26:07.046Z,4.72
2022-08-26T12:28:42.853Z,4.20
2022-08-26T12:31:20.805Z,4.53
2022-08-26T12:33:51.691Z,4.63
2022-08-26T12:36:33.798Z,4.22
2022-08-26T12:39:14.140Z,4.20
2022-08-26T12:41:53.119Z,4.35
2022-08-26T12:44:37.009Z,4.22
2022-08-26T12:47:10.042Z,4.32
2022-08-26T12:49:38.872Z,4.88
2022-08-26T12:52:08.845Z,4.47
2022-08-26T12:54:56.825Z,3.97
2022-08-26T12:57:30.727Z,4.35
2022-08-26T13:00:35.229Z,5.80
2022-08-26T13:03:02.151Z,4.22
2022-08-26T13:05:34.887Z,4.45
2022-08-26T13:08:15.198Z,4.32
2022-08-26T13:11:04.885Z,4.85
2022-08-26T13:13:45.620Z,4.38
2022-08-26T13:16:15.934Z,4.90
2022-08-26T13:18:52.296Z,3.75
2022-08-26T13:21:28.721Z,4.20
2022-08-26T13:24:11.487Z,3.85
2022-08-26T13:26:40.050Z,4.25
2022-08-26T13:29:10.482Z,4.60
2022-08-26T13:31:40.300Z,4.33
2022-08-26T13:34:09.803Z,3.90
2022-08-26T13:36:36.652Z,3.88
2022-08-26T13:39:04.683Z,3.70
2022-08-26T13:41:31.908Z,3.63
2022-08-26T13:44:04.316Z,3.42
2022-08-26T13:46:31.502Z,3.90
2022-08-26T13:49:00.498Z,3.67
2022-08-26T13:51:27.942Z,3.47
2022-08-26T13:54:00.718Z,3.70
2022-08-26T13:56:28.822Z,3.38
2022-08-26T13:59:00.608Z,3.72
2022-08-26T14:01:32.373Z,7.55
2022-08-26T14:04:01.771Z,3.60
2022-08-26T14:06:47.751Z,3.30
2022-08-26T14:13:02.598Z,3.65
2022-08-26T14:15:50.222Z,16.90
2022-08-26T14:18:52.451Z,7.93
2022-08-26T14:21:21.045Z,3.60
2022-08-26T14:23:48.192Z,3.38
2022-08-26T14:26:30.012Z,3.67
2022-08-26T14:29:20.929Z,3.75
2022-08-26T14:31:55.306Z,3.53
2022-08-26T14:34:26.211Z,5.47
2022-08-26T14:37:07.784Z,3.92
2022-08-26T14:40:10.782Z,7.80
2022-08-26T14:43:10.819Z,13.55
2022-08-26T14:46:04.245Z,5.32
2022-08-26T14:48:40.210Z,5.07
2022-08-26T14:51:17.559Z,4.47
2022-08-26T14:54:14.857Z,4.85
2022-08-26T14:56:53.700Z,5.13
2022-08-26T14:59:28.446Z,5.20
2022-08-26T15:02:07.985Z,4.75
2022-08-26T15:05:09.596Z,4.70
2022-08-26T15:07:39.649Z,4.87
2022-08-26T15:10:19.937Z,5.13
2022-08-26T15:13:00.191Z,5.10
2022-08-26T15:15:52.037Z,5.30
2022-08-26T15:18:51.088Z,4.93
2022-08-26T15:21:43.250Z,5.30
2022-08-26T15:24:26.606Z,5.82
2022-08-26T15:27:05.913Z,5.55
2022-08-26T15:29:48.596Z,4.85
2022-08-26T15:33:04.833Z,5.32
2022-08-26T15:35:33.089Z,5.35
2022-08-26T15:38:13.109Z,5.72
2022-08-26T15:40:42.733Z,5.07
2022-08-26T15:43:25.534Z,5.30
2022-08-26T15:45:56.237Z,5.30
2022-08-26T15:48:24.877Z,5.40
2022-08-26T15:50:56.557Z,6.10
2022-08-26T15:55:56.436Z,4.82
2022-08-26T15:58:30.784Z,3.50
2022-08-26T16:00:57.801Z,3.42
2022-08-26T16:03:26.739Z,3.10
2022-08-26T16:05:55.486Z,2.97
2022-08-26T16:08:26.355Z,3.88
2022-08-26T16:10:56.725Z,3.20
2022-08-26T16:13:23.753Z,3.22
2022-08-26T16:15:55.698Z,3.08
2022-08-26T16:18:27.124Z,3.20
2022-08-26T16:20:55.369Z,4.00
2022-08-26T16:24:04.719Z,3.55
2022-08-26T16:26:34.379Z,4.23
2022-08-26T16:29:09.194Z,4.57
2022-08-26T16:31:37.207Z,4.70
2022-08-26T16:34:06.600Z,4.57
2022-08-26T16:36:37.398Z,4.47
2022-08-26T16:39:05.631Z,4.35
2022-08-26T16:41:37.327Z,6.30
2022-08-26T16:44:05.613Z,6.88
2022-08-26T16:46:34.171Z,6.75
2022-08-26T16:49:03.728Z,7.70
2022-08-26T16:51:37.932Z,7.57
2022-08-26T16:54:09.995Z,8.60
2022-08-26T16:56:39.420Z,6.47
2022-08-26T16:59:10.799Z,6.05
2022-08-26T17:01:41.058Z,6.45
2022-08-26T17:04:08.010Z,8.02
2022-08-26T17:06:37.415Z,6.15
2022-08-26T17:09:08.583Z,3.47
2022-08-26T17:11:46.195Z,4.80
2022-08-26T17:14:13.112Z,4.45
2022-08-26T17:16:39.820Z,5.03
2022-08-26T17:19:07.395Z,4.00
2022-08-26T17:21:35.567Z,5.28
2022-08-26T17:24:06.201Z,5.95
2022-08-26T17:26:37.013Z,5.28
2022-08-26T17:29:06.608Z,5.05
2022-08-26T17:31:34.234Z,5.43
2022-08-26T17:34:01.491Z,4.93
2022-08-26T17:36:37.261Z,6.95
2022-08-26T17:39:06.602Z,5.25
2022-08-26T17:44:12.502Z,5.85
2022-08-26T17:46:39.735Z,5.68
2022-08-26T17:49:06.669Z,5.55
2022-08-26T17:51:35.698Z,5.57
2022-08-26T17:54:08.245Z,6.30
2022-08-26T17:56:46.714Z,6.55
2022-08-26T17:59:13.436Z,5.53
2022-08-26T18:01:44.513Z,5.35
2022-08-26T18:04:36.480Z,5.20
2022-08-26T18:07:04.553Z,5.82
2022-08-26T18:09:36.010Z,5.25
2022-08-26T18:12:39.567Z,5.38
2022-08-26T18:20:54.083Z,5.78
2022-08-26T18:23:29.571Z,6.95
2022-08-26T18:26:00.745Z,6.32
2022-08-26T18:28:29.184Z,6.50
2022-08-26T18:30:59.310Z,6.23
2022-08-26T18:33:36.071Z,5.07
2022-08-26T18:36:06.583Z,5.38
2022-08-26T18:38:37.210Z,6.13
2022-08-26T18:41:04.284Z,6.00
2022-08-26T18:43:40.308Z,6.78
2022-08-26T18:46:09.722Z,6.38
2022-08-26T18:48:49.098Z,6.10
2022-08-26T18:51:36.653Z,6.72
2022-08-26T18:54:32.454Z,6.55
2022-08-26T18:57:02.105Z,6.72
2022-08-26T18:59:35.050Z,7.10
2022-08-26T19:02:06.746Z,7.10
2022-08-26T19:04:38.117Z,6.70
2022-08-26T19:19:47.751Z,6.88
2022-08-26T19:22:27.337Z,6.65
2022-08-26T19:25:00.547Z,5.93
2022-08-26T19:27:33.208Z,6.65
2022-08-26T19:30:09.154Z,6.47
2022-08-26T19:32:37.246Z,6.40
2022-08-26T19:35:08.471Z,6.65
2022-08-26T19:38:00.724Z,7.50
2022-08-26T19:40:31.584Z,8.32
2022-08-26T19:45:56.775Z,7.57
2022-08-26T19:51:30.259Z,7.40
2022-08-26T19:57:09.616Z,7.82
2022-08-26T19:59:39.649Z,7.47
2022-08-26T20:02:17.412Z,7.72
2022-08-26T20:04:45.019Z,8.02
2022-08-26T20:07:22.135Z,7.22
2022-08-26T20:09:50.122Z,7.72
2022-08-26T20:12:19.636Z,7.95
2022-08-26T20:14:46.358Z,8.77
2022-08-26T20:17:16.941Z,9.60
2022-08-26T20:20:06.568Z,11.25
2022-08-26T20:22:53.921Z,10.48
2022-08-26T20:25:23.751Z,11.93
2022-08-26T20:27:55.191Z,11.02
2022-08-26T20:30:43.917Z,12.00
2022-08-26T20:33:46.130Z,12.27
2022-08-26T20:36:22.896Z,11.75
2022-08-26T20:38:54.744Z,12.52
2022-08-26T20:41:24.886Z,11.98
2022-08-26T20:43:56.109Z,13.23
2022-08-26T20:46:25.302Z,12.48
2022-08-26T20:48:55.527Z,12.57
2022-08-26T20:51:28.585Z,12.32
2022-08-26T20:54:00.771Z,13.88
2022-08-26T20:56:35.876Z,14.57
2022-08-26T20:59:06.154Z,15.05
2022-08-26T21:01:42.073Z,14.88
2022-08-26T21:04:14.178Z,13.90
2022-08-26T21:06:52.094Z,13.65
2022-08-26T21:09:26.704Z,13.15
2022-08-26T21:11:56.495Z,14.80
2022-08-26T21:14:26.171Z,13.40
2022-08-26T21:16:53.660Z,13.20
2022-08-26T21:19:22.477Z,14.50
2022-08-26T21:21:50.546Z,14.38
2022-08-26T21:24:23.722Z,14.48
2022-08-26T21:26:50.480Z,14.38
2022-08-26T21:29:21.311Z,15.82
2022-08-26T21:32:18.302Z,17.15
2022-08-26T21:34:46.390Z,17.52
2022-08-26T21:37:39.278Z,16.88
2022-08-26T21:40:13.598Z,16.90
2022-08-26T21:42:43.499Z,16.60
2022-08-26T21:45:11.683Z,17.50
2022-08-26T21:47:41.037Z,18.67
2022-08-26T21:50:10.612Z,18.80
2022-08-26T21:52:38.178Z,21.02
2022-08-26T21:55:08.992Z,21.92
2022-08-26T21:57:40.097Z,22.20
2022-08-26T22:00:08.781Z,26.08
2022-08-26T22:02:37.774Z,24.98
2022-08-26T22:05:07.041Z,23.90
2022-08-26T22:07:36.069Z,27.02
2022-08-26T22:10:08.508Z,8.82
2022-08-26T22:12:35.382Z,9.07
2022-08-26T22:15:03.125Z,4.60
2022-08-26T22:17:29.946Z,4.07
2022-08-26T22:20:05.101Z,3.60
2022-08-26T22:22:38.978Z,3.88
2022-08-26T22:25:06.040Z,5.30
2022-08-26T22:27:34.092Z,5.18
2022-08-26T22:30:11.720Z,6.80
2022-08-26T22:32:43.195Z,7.13
2022-08-26T22:35:29.387Z,6.95
2022-08-26T22:37:58.914Z,6.72
2022-08-26T22:40:28.054Z,6.72
2022-08-26T22:43:00.454Z,7.30
2022-08-26T22:45:31.319Z,7.32
2022-08-26T22:48:03.821Z,7.47
2022-08-26T22:53:00.361Z,8.23
2022-08-26T22:55:27.088Z,8.32
2022-08-26T22:57:53.767Z,9.52
2022-08-26T23:00:32.180Z,9.57
2022-08-26T23:03:04.065Z,10.63
2022-08-26T23:05:34.073Z,13.87
2022-08-26T23:08:01.498Z,17.23
2022-08-26T23:10:31.781Z,17.40
2022-08-26T23:12:59.380Z,19.98
2022-08-26T23:15:28.622Z,19.95
2022-08-26T23:17:58.420Z,32.70
2022-08-26T23:20:28.091Z,37.63
2022-08-26T23:22:57.874Z,40.42
2022-08-26T23:25:29.017Z,41.95
2022-08-26T23:27:55.839Z,48.28
2022-08-26T23:30:29.055Z,46.63
2022-08-26T23:33:04.632Z,48.72
2022-08-26T23:35:37.304Z,45.30
2022-08-26T23:38:09.276Z,40.55
2022-08-26T23:40:39.910Z,42.72
2022-08-26T23:43:20.252Z,36.47
2022-08-26T23:45:47.005Z,35.08
2022-08-26T23:48:13.855Z,36.08
2022-08-26T23:51:02.740Z,34.13
2022-08-26T23:53:31.626Z,31.23
2022-08-26T23:55:58.854Z,24.10
2022-08-26T23:58:28.845Z,15.25
